createdAt,value
2017-09-21T17:40:15.281Z,4.50
2017-09-21T17:42:42.840Z,4.20
2017-09-21T17:45:13.148Z,4.60
2017-09-21T17:47:40.825Z,4.30
2017-09-21T17:50:08.804Z,4.43
2017-09-21T17:52:36.389Z,4.10
2017-09-21T17:55:03.989Z,4.07
2017-09-21T17:57:32.312Z,3.97
2017-09-21T17:59:59.870Z,4.07
2017-09-21T18:02:27.444Z,3.87
2017-09-21T18:04:55.006Z,4.10
2017-09-21T18:07:22.567Z,4.27
2017-09-21T18:09:50.153Z,4.30
2017-09-21T18:12:18.541Z,4.20
2017-09-21T18:14:46.101Z,3.87
2017-09-21T18:17:14.022Z,4.80
2017-09-21T18:19:42.447Z,3.67
2017-09-21T18:22:10.001Z,3.83
2017-09-21T18:24:37.580Z,4.30
2017-09-21T18:27:05.168Z,4.20
2017-09-21T18:29:32.803Z,3.90
2017-09-21T18:32:00.429Z,4.20
2017-09-21T18:34:28.745Z,4.23
2017-09-21T18:36:56.317Z,4.20
2017-09-21T18:39:24.676Z,4.43
2017-09-21T18:41:52.278Z,4.00
2017-09-21T18:44:19.876Z,3.87
2017-09-21T18:46:47.479Z,3.60
2017-09-21T18:49:15.958Z,3.30
2017-09-21T18:51:43.554Z,4.50
2017-09-21T18:54:11.147Z,4.43
2017-09-21T18:56:38.729Z,3.90
2017-09-21T18:59:06.292Z,3.70
2017-09-21T19:01:33.920Z,4.20
2017-09-21T19:04:02.085Z,3.97
2017-09-21T19:06:29.669Z,4.00
2017-09-21T19:08:57.707Z,4.20
2017-09-21T19:11:25.450Z,3.97
2017-09-21T19:13:53.038Z,4.53
2017-09-21T19:16:21.532Z,4.20
2017-09-21T19:21:45.031Z,3.47
2017-09-21T19:24:15.586Z,4.07
2017-09-21T19:26:45.084Z,3.70
2017-09-21T19:29:20.225Z,3.90
2017-09-21T19:31:49.297Z,3.93
2017-09-21T19:34:23.758Z,3.73
2017-09-21T19:36:53.001Z,4.90
2017-09-21T19:39:21.890Z,3.47
2017-09-21T19:41:50.191Z,4.03
2017-09-21T19:44:17.745Z,4.10
2017-09-21T19:46:45.325Z,4.40
2017-09-21T19:49:12.936Z,3.87
2017-09-21T19:51:40.501Z,4.20
2017-09-21T19:54:08.508Z,4.23
2017-09-21T19:56:36.140Z,4.17
2017-09-21T19:59:03.696Z,4.00
2017-09-21T20:01:31.323Z,4.50
2017-09-21T20:03:59.373Z,4.00
2017-09-21T20:06:26.992Z,3.93
2017-09-21T20:08:54.593Z,3.97
2017-09-21T20:11:22.189Z,3.80
2017-09-21T20:13:49.760Z,3.97
2017-09-21T20:16:17.342Z,4.00
2017-09-21T20:18:45.161Z,4.37
2017-09-21T20:21:12.753Z,4.10
2017-09-21T20:23:40.345Z,3.43
2017-09-21T20:26:08.141Z,4.30
2017-09-21T20:28:35.697Z,4.47
2017-09-21T20:31:03.314Z,4.37
2017-09-21T20:33:30.946Z,4.10
2017-09-21T20:35:58.558Z,3.70
2017-09-21T20:38:26.132Z,5.37
2017-09-21T20:40:54.491Z,4.33
2017-09-21T20:43:22.058Z,4.50
2017-09-21T20:45:49.641Z,4.27
2017-09-21T20:48:17.425Z,4.67
2017-09-21T20:50:45.586Z,4.90
2017-09-21T20:53:13.170Z,4.40
2017-09-21T20:55:40.757Z,5.20
2017-09-21T20:58:08.722Z,4.20
2017-09-21T21:00:36.301Z,5.53
2017-09-21T21:03:05.521Z,5.20
2017-09-21T21:05:33.145Z,5.80
2017-09-21T21:08:00.740Z,5.50
2017-09-21T21:10:28.925Z,5.43
2017-09-21T21:12:56.502Z,5.33
2017-09-21T21:15:24.081Z,5.67
2017-09-21T21:17:52.443Z,5.37
2017-09-21T21:20:20.005Z,5.37
2017-09-21T21:22:47.585Z,5.20
2017-09-21T21:25:15.207Z,5.47
2017-09-21T21:27:42.828Z,5.57
2017-09-21T21:30:15.471Z,5.10
2017-09-21T21:32:46.479Z,5.60
2017-09-21T21:35:16.413Z,5.73
2017-09-21T21:37:43.987Z,5.70
2017-09-21T21:40:11.885Z,5.20
2017-09-21T21:42:39.448Z,5.70
2017-09-21T21:45:07.844Z,5.23
2017-09-21T21:47:35.396Z,5.50
2017-09-21T21:52:42.789Z,5.50
2017-09-21T21:55:11.866Z,5.20
2017-09-21T21:57:39.437Z,5.00
2017-09-21T22:00:07.596Z,6.00
2017-09-21T22:02:54.352Z,5.17
2017-09-21T22:05:22.324Z,4.90
2017-09-21T22:07:49.877Z,5.10
2017-09-21T22:10:17.432Z,5.60
2017-09-21T22:12:45.009Z,5.00
2017-09-21T22:15:12.556Z,5.27
2017-09-21T22:17:40.131Z,5.20
2017-09-21T22:20:07.717Z,5.13
2017-09-21T22:22:35.288Z,4.70
2017-09-21T22:25:02.881Z,4.60
2017-09-21T22:27:30.462Z,5.40
2017-09-21T22:29:58.413Z,4.90
2017-09-21T22:32:25.965Z,5.67
2017-09-21T22:34:53.540Z,4.60
2017-09-21T22:37:21.118Z,4.50
2017-09-21T22:39:48.697Z,5.00
2017-09-21T22:42:16.321Z,5.00
2017-09-21T22:44:43.901Z,4.93
2017-09-21T22:47:11.477Z,5.60
2017-09-21T22:49:39.085Z,4.90
2017-09-21T22:52:06.632Z,5.33
2017-09-21T22:54:34.204Z,4.83
2017-09-21T22:57:01.820Z,4.83
2017-09-21T22:59:29.395Z,4.90
2017-09-21T23:01:57.010Z,5.30
2017-09-21T23:04:28.130Z,5.00
2017-09-21T23:06:56.036Z,4.60
2017-09-21T23:09:23.625Z,4.90
2017-09-21T23:11:51.209Z,6.00
2017-09-21T23:14:18.757Z,4.80
2017-09-21T23:16:46.331Z,4.40
2017-09-21T23:19:13.915Z,4.90
2017-09-21T23:21:41.470Z,4.80
2017-09-21T23:24:09.048Z,5.30
2017-09-21T23:26:36.657Z,5.60
2017-09-21T23:29:04.208Z,4.57
2017-09-21T23:31:31.780Z,4.60
2017-09-21T23:33:59.885Z,4.80
2017-09-21T23:36:27.433Z,5.20
2017-09-21T23:38:54.989Z,5.10
2017-09-21T23:41:22.589Z,4.77
2017-09-21T23:43:50.169Z,4.73
2017-09-21T23:46:17.716Z,4.77
2017-09-21T23:48:45.292Z,4.63
2017-09-21T23:51:13.298Z,5.67
2017-09-21T23:53:40.876Z,5.37
2017-09-21T23:56:08.879Z,5.40
2017-09-21T23:58:36.433Z,4.50
